sensor_id;sensor_type;location;lat;lon;timestamp;temperature;humidity
21906;DHT22;11117;48.644;9.006;2022-12-29T00:00:21;8.30;99.90
21906;DHT22;11117;48.644;9.006;2022-12-29T00:02:46;8.40;99.90
21906;DHT22;11117;48.644;9.006;2022-12-29T00:05:12;8.50;99.90
21906;DHT22;11117;48.644;9.006;2022-12-29T00:07:38;8.50;99.90
21906;DHT22;11117;48.644;9.006;2022-12-29T00:10:03;8.60;99.90
21906;DHT22;11117;48.644;9.006;2022-12-29T00:12:29;8.60;99.90
21906;DHT22;11117;48.644;9.006;2022-12-29T00:14:55;8.60;99.90
21906;DHT22;11117;48.644;9.006;2022-12-29T00:17:21;8.70;99.90
21906;DHT22;11117;48.644;9.006;2022-12-29T00:19:47;8.60;99.90
21906;DHT22;11117;48.644;9.006;2022-12-29T00:22:14;8.70;99.90
21906;DHT22;11117;48.644;9.006;2022-12-29T00:24:39;8.70;99.90
21906;DHT22;11117;48.644;9.006;2022-12-29T00:29:30;8.80;99.90
21906;DHT22;11117;48.644;9.006;2022-12-29T00:31:56;8.80;99.90
21906;DHT22;11117;48.644;9.006;2022-12-29T00:34:22;8.80;99.90
21906;DHT22;11117;48.644;9.006;2022-12-29T00:36:47;8.80;99.90
21906;DHT22;11117;48.644;9.006;2022-12-29T00:39:16;8.80;99.90
21906;DHT22;11117;48.644;9.006;2022-12-29T00:41:42;8.80;99.90
21906;DHT22;11117;48.644;9.006;2022-12-29T00:44:10;8.80;99.90
21906;DHT22;11117;48.644;9.006;2022-12-29T00:46:38;8.80;99.90
21906;DHT22;11117;48.644;9.006;2022-12-29T00:49:06;8.90;99.90
21906;DHT22;11117;48.644;9.006;2022-12-29T00:51:34;8.90;99.90
21906;DHT22;11117;48.644;9.006;2022-12-29T00:53:59;8.90;99.90
21906;DHT22;11117;48.644;9.006;2022-12-29T00:56:25;8.80;99.90
21906;DHT22;11117;48.644;9.006;2022-12-29T00:58:50;8.80;99.90
21906;DHT22;11117;48.644;9.006;2022-12-29T01:01:16;8.80;99.90
21906;DHT22;11117;48.644;9.006;2022-12-29T01:03:42;8.80;99.90
21906;DHT22;11117;48.644;9.006;2022-12-29T01:06:09;8.80;99.90
21906;DHT22;11117;48.644;9.006;2022-12-29T01:08:35;8.80;99.90
21906;DHT22;11117;48.644;9.006;2022-12-29T01:11:09;8.70;99.90
21906;DHT22;11117;48.644;9.006;2022-12-29T01:13:35;8.80;99.90
21906;DHT22;11117;48.644;9.006;2022-12-29T01:16:01;8.80;99.90
21906;DHT22;11117;48.644;9.006;2022-12-29T01:18:27;8.80;99.90
21906;DHT22;11117;48.644;9.006;2022-12-29T01:21:00;8.90;99.90
21906;DHT22;11117;48.644;9.006;2022-12-29T01:23:27;8.90;99.90
21906;DHT22;11117;48.644;9.006;2022-12-29T01:25:52;9.00;99.90
21906;DHT22;11117;48.644;9.006;2022-12-29T01:28:18;9.00;99.90
21906;DHT22;11117;48.644;9.006;2022-12-29T01:30:43;9.10;99.90
21906;DHT22;11117;48.644;9.006;2022-12-29T01:33:09;9.10;99.90
21906;DHT22;11117;48.644;9.006;2022-12-29T01:35:35;9.20;99.90
21906;DHT22;11117;48.644;9.006;2022-12-29T01:38:00;9.20;99.90
21906;DHT22;11117;48.644;9.006;2022-12-29T01:40:26;9.30;99.90
21906;DHT22;11117;48.644;9.006;2022-12-29T01:42:51;9.30;99.90
21906;DHT22;11117;48.644;9.006;2022-12-29T01:45:18;9.40;99.90
21906;DHT22;11117;48.644;9.006;2022-12-29T01:47:58;9.40;99.90
21906;DHT22;11117;48.644;9.006;2022-12-29T01:50:29;9.40;99.90
21906;DHT22;11117;48.644;9.006;2022-12-29T01:53:18;9.50;99.90
21906;DHT22;11117;48.644;9.006;2022-12-29T01:55:48;9.50;99.90
21906;DHT22;11117;48.644;9.006;2022-12-29T01:58:16;9.50;99.90
21906;DHT22;11117;48.644;9.006;2022-12-29T02:00:43;9.50;99.90
21906;DHT22;11117;48.644;9.006;2022-12-29T02:03:09;9.60;99.90
21906;DHT22;11117;48.644;9.006;2022-12-29T02:05:46;9.60;99.90
21906;DHT22;11117;48.644;9.006;2022-12-29T02:08:13;9.60;99.90
21906;DHT22;11117;48.644;9.006;2022-12-29T02:10:39;9.60;99.90
21906;DHT22;11117;48.644;9.006;2022-12-29T02:13:05;9.60;99.90
21906;DHT22;11117;48.644;9.006;2022-12-29T02:21:19;9.60;99.90
21906;DHT22;11117;48.644;9.006;2022-12-29T02:24:31;9.70;99.90
21906;DHT22;11117;48.644;9.006;2022-12-29T02:32:28;9.70;99.90
21906;DHT22;11117;48.644;9.006;2022-12-29T02:35:05;9.60;99.90
21906;DHT22;11117;48.644;9.006;2022-12-29T02:37:48;9.70;99.90
21906;DHT22;11117;48.644;9.006;2022-12-29T02:48:08;9.70;99.90
21906;DHT22;11117;48.644;9.006;2022-12-29T02:50:46;9.80;99.90
21906;DHT22;11117;48.644;9.006;2022-12-29T02:53:15;9.70;99.90
21906;DHT22;11117;48.644;9.006;2022-12-29T02:55:51;9.70;99.90
21906;DHT22;11117;48.644;9.006;2022-12-29T02:58:22;9.80;99.90
21906;DHT22;11117;48.644;9.006;2022-12-29T03:09:49;9.80;99.90
21906;DHT22;11117;48.644;9.006;2022-12-29T03:12:37;9.90;99.90
21906;DHT22;11117;48.644;9.006;2022-12-29T03:15:12;9.90;99.90
21906;DHT22;11117;48.644;9.006;2022-12-29T03:17:58;9.90;99.90
21906;DHT22;11117;48.644;9.006;2022-12-29T03:21:12;9.90;99.90
21906;DHT22;11117;48.644;9.006;2022-12-29T03:23:30;9.90;99.90
21906;DHT22;11117;48.644;9.006;2022-12-29T03:25:59;9.90;99.90
21906;DHT22;11117;48.644;9.006;2022-12-29T03:28:35;10.00;99.90
21906;DHT22;11117;48.644;9.006;2022-12-29T03:31:03;10.00;99.90
21906;DHT22;11117;48.644;9.006;2022-12-29T03:33:30;10.10;99.90
21906;DHT22;11117;48.644;9.006;2022-12-29T03:36:02;10.10;99.90
21906;DHT22;11117;48.644;9.006;2022-12-29T03:38:44;10.10;99.90
21906;DHT22;11117;48.644;9.006;2022-12-29T03:41:14;10.10;99.90
21906;DHT22;11117;48.644;9.006;2022-12-29T03:43:41;10.10;99.90
21906;DHT22;11117;48.644;9.006;2022-12-29T03:46:07;10.00;99.90
21906;DHT22;11117;48.644;9.006;2022-12-29T03:48:32;9.90;99.90
21906;DHT22;11117;48.644;9.006;2022-12-29T03:50:58;9.90;99.90
21906;DHT22;11117;48.644;9.006;2022-12-29T03:53:24;9.80;99.90
21906;DHT22;11117;48.644;9.006;2022-12-29T03:55:49;9.80;99.90
21906;DHT22;11117;48.644;9.006;2022-12-29T03:58:15;9.70;99.90
21906;DHT22;11117;48.644;9.006;2022-12-29T04:00:41;9.70;99.90
21906;DHT22;11117;48.644;9.006;2022-12-29T04:03:07;9.60;99.90
21906;DHT22;11117;48.644;9.006;2022-12-29T04:05:32;9.50;99.90
21906;DHT22;11117;48.644;9.006;2022-12-29T04:07:58;9.40;99.90
21906;DHT22;11117;48.644;9.006;2022-12-29T04:10:24;9.40;99.90
21906;DHT22;11117;48.644;9.006;2022-12-29T04:12:49;9.40;99.90
21906;DHT22;11117;48.644;9.006;2022-12-29T04:15:15;9.40;99.90
21906;DHT22;11117;48.644;9.006;2022-12-29T04:17:40;9.30;99.90
21906;DHT22;11117;48.644;9.006;2022-12-29T04:20:06;9.30;99.90
21906;DHT22;11117;48.644;9.006;2022-12-29T04:22:32;9.30;99.90
21906;DHT22;11117;48.644;9.006;2022-12-29T04:25:00;9.30;99.90
21906;DHT22;11117;48.644;9.006;2022-12-29T04:27:26;9.30;99.90
21906;DHT22;11117;48.644;9.006;2022-12-29T04:29:52;9.30;99.90
21906;DHT22;11117;48.644;9.006;2022-12-29T04:32:20;9.30;99.90
21906;DHT22;11117;48.644;9.006;2022-12-29T04:34:46;9.30;99.90
21906;DHT22;11117;48.644;9.006;2022-12-29T04:37:13;9.30;99.90
21906;DHT22;11117;48.644;9.006;2022-12-29T04:39:38;9.30;99.90
21906;DHT22;11117;48.644;9.006;2022-12-29T04:42:04;9.30;99.90
21906;DHT22;11117;48.644;9.006;2022-12-29T04:44:30;9.30;99.90
21906;DHT22;11117;48.644;9.006;2022-12-29T04:46:55;9.20;99.90
21906;DHT22;11117;48.644;9.006;2022-12-29T04:49:21;9.20;99.90
21906;DHT22;11117;48.644;9.006;2022-12-29T04:51:46;9.20;99.90
21906;DHT22;11117;48.644;9.006;2022-12-29T04:54:12;9.20;99.90
21906;DHT22;11117;48.644;9.006;2022-12-29T04:56:37;9.20;99.90
21906;DHT22;11117;48.644;9.006;2022-12-29T04:59:03;9.20;99.90
21906;DHT22;11117;48.644;9.006;2022-12-29T05:01:28;9.20;99.90
21906;DHT22;11117;48.644;9.006;2022-12-29T05:03:54;9.30;99.90
21906;DHT22;11117;48.644;9.006;2022-12-29T05:06:20;9.30;99.90
21906;DHT22;11117;48.644;9.006;2022-12-29T05:08:45;9.20;99.90
21906;DHT22;11117;48.644;9.006;2022-12-29T05:11:11;9.30;99.90
21906;DHT22;11117;48.644;9.006;2022-12-29T05:13:39;9.30;99.90
21906;DHT22;11117;48.644;9.006;2022-12-29T05:16:05;9.20;99.90
21906;DHT22;11117;48.644;9.006;2022-12-29T05:18:31;9.20;99.90
21906;DHT22;11117;48.644;9.006;2022-12-29T05:20:56;9.20;99.90
21906;DHT22;11117;48.644;9.006;2022-12-29T05:23:22;9.20;99.90
21906;DHT22;11117;48.644;9.006;2022-12-29T05:25:47;9.10;99.90
21906;DHT22;11117;48.644;9.006;2022-12-29T05:28:13;9.10;99.90
21906;DHT22;11117;48.644;9.006;2022-12-29T05:30:39;9.10;99.90
21906;DHT22;11117;48.644;9.006;2022-12-29T05:33:11;9.10;99.90
21906;DHT22;11117;48.644;9.006;2022-12-29T05:35:36;9.10;99.90
21906;DHT22;11117;48.644;9.006;2022-12-29T05:38:02;9.10;99.90
21906;DHT22;11117;48.644;9.006;2022-12-29T05:40:27;9.20;99.90
21906;DHT22;11117;48.644;9.006;2022-12-29T05:42:53;9.20;99.90
21906;DHT22;11117;48.644;9.006;2022-12-29T05:45:18;9.30;99.90
21906;DHT22;11117;48.644;9.006;2022-12-29T05:47:44;9.40;99.90
21906;DHT22;11117;48.644;9.006;2022-12-29T05:50:09;9.40;99.90
21906;DHT22;11117;48.644;9.006;2022-12-29T05:52:35;9.50;99.90
21906;DHT22;11117;48.644;9.006;2022-12-29T05:55:00;9.50;99.90
21906;DHT22;11117;48.644;9.006;2022-12-29T05:57:26;9.70;99.90
21906;DHT22;11117;48.644;9.006;2022-12-29T05:59:52;9.70;99.90
21906;DHT22;11117;48.644;9.006;2022-12-29T06:02:17;9.80;99.90
21906;DHT22;11117;48.644;9.006;2022-12-29T06:04:43;9.80;99.90
21906;DHT22;11117;48.644;9.006;2022-12-29T06:07:08;9.80;99.90
21906;DHT22;11117;48.644;9.006;2022-12-29T06:09:34;9.80;99.90
21906;DHT22;11117;48.644;9.006;2022-12-29T06:11:59;9.90;99.90
21906;DHT22;11117;48.644;9.006;2022-12-29T06:14:25;9.90;99.90
21906;DHT22;11117;48.644;9.006;2022-12-29T06:16:50;9.90;99.90
21906;DHT22;11117;48.644;9.006;2022-12-29T06:19:16;9.90;99.90
21906;DHT22;11117;48.644;9.006;2022-12-29T06:21:41;9.80;99.90
21906;DHT22;11117;48.644;9.006;2022-12-29T06:24:08;9.80;99.90
21906;DHT22;11117;48.644;9.006;2022-12-29T06:26:33;9.80;99.90
21906;DHT22;11117;48.644;9.006;2022-12-29T06:28:59;9.80;99.90
21906;DHT22;11117;48.644;9.006;2022-12-29T06:31:25;9.80;99.90
21906;DHT22;11117;48.644;9.006;2022-12-29T06:33:50;9.80;99.90
21906;DHT22;11117;48.644;9.006;2022-12-29T06:36:16;9.80;99.90
21906;DHT22;11117;48.644;9.006;2022-12-29T06:38:41;9.80;99.90
21906;DHT22;11117;48.644;9.006;2022-12-29T06:41:07;9.90;99.90
21906;DHT22;11117;48.644;9.006;2022-12-29T06:43:33;9.80;99.90
21906;DHT22;11117;48.644;9.006;2022-12-29T06:45:58;9.90;99.90
21906;DHT22;11117;48.644;9.006;2022-12-29T06:48:24;9.90;99.90
21906;DHT22;11117;48.644;9.006;2022-12-29T06:50:49;9.90;99.90
21906;DHT22;11117;48.644;9.006;2022-12-29T06:53:15;10.00;99.90
21906;DHT22;11117;48.644;9.006;2022-12-29T06:55:42;9.90;99.90
21906;DHT22;11117;48.644;9.006;2022-12-29T06:58:07;9.90;99.90
21906;DHT22;11117;48.644;9.006;2022-12-29T07:00:33;9.90;99.90
21906;DHT22;11117;48.644;9.006;2022-12-29T07:02:58;9.90;99.90
21906;DHT22;11117;48.644;9.006;2022-12-29T07:05:24;9.90;99.90
21906;DHT22;11117;48.644;9.006;2022-12-29T07:07:50;9.90;99.90
21906;DHT22;11117;48.644;9.006;2022-12-29T07:10:16;9.90;99.90
21906;DHT22;11117;48.644;9.006;2022-12-29T07:12:41;9.90;99.90
21906;DHT22;11117;48.644;9.006;2022-12-29T07:15:07;9.90;99.90
21906;DHT22;11117;48.644;9.006;2022-12-29T07:17:33;9.80;99.90
21906;DHT22;11117;48.644;9.006;2022-12-29T07:19:58;9.80;99.90
21906;DHT22;11117;48.644;9.006;2022-12-29T07:22:24;9.70;99.90
21906;DHT22;11117;48.644;9.006;2022-12-29T07:24:49;9.70;99.90
21906;DHT22;11117;48.644;9.006;2022-12-29T07:27:15;9.60;99.90
21906;DHT22;11117;48.644;9.006;2022-12-29T07:29:40;9.70;99.90
21906;DHT22;11117;48.644;9.006;2022-12-29T07:32:06;9.60;99.90
21906;DHT22;11117;48.644;9.006;2022-12-29T07:34:31;9.70;99.90
21906;DHT22;11117;48.644;9.006;2022-12-29T07:36:57;9.50;99.90
21906;DHT22;11117;48.644;9.006;2022-12-29T07:39:22;9.50;99.90
21906;DHT22;11117;48.644;9.006;2022-12-29T07:41:48;9.60;99.90
21906;DHT22;11117;48.644;9.006;2022-12-29T07:44:13;9.50;99.90
21906;DHT22;11117;48.644;9.006;2022-12-29T07:46:39;9.60;99.90
21906;DHT22;11117;48.644;9.006;2022-12-29T07:49:04;9.60;99.90
21906;DHT22;11117;48.644;9.006;2022-12-29T07:51:30;9.70;99.90
21906;DHT22;11117;48.644;9.006;2022-12-29T07:53:55;9.70;99.90
21906;DHT22;11117;48.644;9.006;2022-12-29T07:56:21;9.80;99.90
21906;DHT22;11117;48.644;9.006;2022-12-29T07:58:46;9.80;99.90
21906;DHT22;11117;48.644;9.006;2022-12-29T08:01:12;9.90;99.90
21906;DHT22;11117;48.644;9.006;2022-12-29T08:03:37;9.90;99.90
21906;DHT22;11117;48.644;9.006;2022-12-29T08:06:03;9.90;99.90
21906;DHT22;11117;48.644;9.006;2022-12-29T08:08:29;10.00;99.90
21906;DHT22;11117;48.644;9.006;2022-12-29T08:10:54;10.00;99.90
21906;DHT22;11117;48.644;9.006;2022-12-29T08:13:20;10.10;99.90
21906;DHT22;11117;48.644;9.006;2022-12-29T08:15:45;10.10;99.90
21906;DHT22;11117;48.644;9.006;2022-12-29T08:18:11;10.20;99.90
21906;DHT22;11117;48.644;9.006;2022-12-29T08:20:36;10.20;99.90
21906;DHT22;11117;48.644;9.006;2022-12-29T08:23:02;10.20;99.90
21906;DHT22;11117;48.644;9.006;2022-12-29T08:25:30;10.20;99.90
21906;DHT22;11117;48.644;9.006;2022-12-29T08:27:56;10.20;99.90
21906;DHT22;11117;48.644;9.006;2022-12-29T08:30:24;10.30;99.90
21906;DHT22;11117;48.644;9.006;2022-12-29T08:32:50;10.20;99.90
21906;DHT22;11117;48.644;9.006;2022-12-29T08:35:15;10.30;99.90
21906;DHT22;11117;48.644;9.006;2022-12-29T08:37:41;10.40;99.90
21906;DHT22;11117;48.644;9.006;2022-12-29T08:40:07;10.30;99.90
21906;DHT22;11117;48.644;9.006;2022-12-29T08:42:33;10.30;99.90
21906;DHT22;11117;48.644;9.006;2022-12-29T08:44:59;10.30;99.90
21906;DHT22;11117;48.644;9.006;2022-12-29T08:47:25;10.40;99.90
21906;DHT22;11117;48.644;9.006;2022-12-29T08:49:51;10.40;99.90
21906;DHT22;11117;48.644;9.006;2022-12-29T08:52:17;10.40;99.90
21906;DHT22;11117;48.644;9.006;2022-12-29T08:54:42;10.30;99.90
21906;DHT22;11117;48.644;9.006;2022-12-29T08:57:08;10.30;99.90
21906;DHT22;11117;48.644;9.006;2022-12-29T08:59:34;10.30;99.90
21906;DHT22;11117;48.644;9.006;2022-12-29T09:01:59;10.30;99.90
21906;DHT22;11117;48.644;9.006;2022-12-29T09:04:25;10.20;99.90
21906;DHT22;11117;48.644;9.006;2022-12-29T09:06:50;10.20;99.90
21906;DHT22;11117;48.644;9.006;2022-12-29T09:09:16;10.20;99.90
21906;DHT22;11117;48.644;9.006;2022-12-29T09:11:42;10.30;99.90
21906;DHT22;11117;48.644;9.006;2022-12-29T09:14:08;10.40;99.90
21906;DHT22;11117;48.644;9.006;2022-12-29T09:16:34;10.50;99.90
21906;DHT22;11117;48.644;9.006;2022-12-29T09:18:59;10.50;99.90
21906;DHT22;11117;48.644;9.006;2022-12-29T09:21:28;10.60;99.90
21906;DHT22;11117;48.644;9.006;2022-12-29T09:23:54;10.80;99.90
21906;DHT22;11117;48.644;9.006;2022-12-29T09:26:20;10.90;99.90
21906;DHT22;11117;48.644;9.006;2022-12-29T09:28:45;11.00;99.90
21906;DHT22;11117;48.644;9.006;2022-12-29T09:31:11;11.10;99.90
21906;DHT22;11117;48.644;9.006;2022-12-29T09:33:36;11.20;99.90
21906;DHT22;11117;48.644;9.006;2022-12-29T09:36:03;11.40;99.90
21906;DHT22;11117;48.644;9.006;2022-12-29T09:38:29;11.50;99.90
21906;DHT22;11117;48.644;9.006;2022-12-29T09:40:58;11.60;99.90
21906;DHT22;11117;48.644;9.006;2022-12-29T09:43:48;11.80;99.90
21906;DHT22;11117;48.644;9.006;2022-12-29T09:46:35;11.90;99.90
21906;DHT22;11117;48.644;9.006;2022-12-29T09:51:50;12.00;99.90
21906;DHT22;11117;48.644;9.006;2022-12-29T09:56:42;12.00;99.90
21906;DHT22;11117;48.644;9.006;2022-12-29T09:59:17;11.90;99.90
21906;DHT22;11117;48.644;9.006;2022-12-29T10:01:59;11.90;99.90
21906;DHT22;11117;48.644;9.006;2022-12-29T10:04:28;11.80;99.90
21906;DHT22;11117;48.644;9.006;2022-12-29T10:23:06;11.80;99.90
21906;DHT22;11117;48.644;9.006;2022-12-29T10:25:41;11.70;99.90
21906;DHT22;11117;48.644;9.006;2022-12-29T10:30:47;11.70;99.90
21906;DHT22;11117;48.644;9.006;2022-12-29T10:33:19;11.70;99.90
21906;DHT22;11117;48.644;9.006;2022-12-29T10:35:50;11.80;99.90
21906;DHT22;11117;48.644;9.006;2022-12-29T10:43:24;12.00;99.90
21906;DHT22;11117;48.644;9.006;2022-12-29T10:45:55;12.00;99.90
21906;DHT22;11117;48.644;9.006;2022-12-29T10:48:25;12.00;99.90
21906;DHT22;11117;48.644;9.006;2022-12-29T10:50:54;11.90;99.90
21906;DHT22;11117;48.644;9.006;2022-12-29T10:53:23;11.80;99.90
21906;DHT22;11117;48.644;9.006;2022-12-29T10:55:51;11.70;99.90
21906;DHT22;11117;48.644;9.006;2022-12-29T10:58:17;11.70;99.90
21906;DHT22;11117;48.644;9.006;2022-12-29T11:00:51;11.70;99.90
21906;DHT22;11117;48.644;9.006;2022-12-29T11:05:59;11.80;99.90
21906;DHT22;11117;48.644;9.006;2022-12-29T11:08:32;11.90;99.90
21906;DHT22;11117;48.644;9.006;2022-12-29T11:11:01;12.00;99.90
21906;DHT22;11117;48.644;9.006;2022-12-29T11:13:29;12.10;99.90
21906;DHT22;11117;48.644;9.006;2022-12-29T11:15:55;12.10;99.90
21906;DHT22;11117;48.644;9.006;2022-12-29T11:21:02;12.00;99.90
21906;DHT22;11117;48.644;9.006;2022-12-29T11:23:37;11.90;99.90
21906;DHT22;11117;48.644;9.006;2022-12-29T11:28:37;11.70;99.90
21906;DHT22;11117;48.644;9.006;2022-12-29T11:31:04;11.70;99.90
21906;DHT22;11117;48.644;9.006;2022-12-29T11:33:31;11.80;99.90
21906;DHT22;11117;48.644;9.006;2022-12-29T11:36:17;11.80;99.90
21906;DHT22;11117;48.644;9.006;2022-12-29T11:38:52;12.00;99.90
21906;DHT22;11117;48.644;9.006;2022-12-29T11:41:31;12.10;99.90
21906;DHT22;11117;48.644;9.006;2022-12-29T11:44:03;12.00;99.90
21906;DHT22;11117;48.644;9.006;2022-12-29T11:46:32;12.00;99.90
21906;DHT22;11117;48.644;9.006;2022-12-29T11:48:59;11.90;99.90
21906;DHT22;11117;48.644;9.006;2022-12-29T11:51:28;11.90;99.90
21906;DHT22;11117;48.644;9.006;2022-12-29T11:53:59;11.90;99.90
21906;DHT22;11117;48.644;9.006;2022-12-29T11:56:38;11.90;99.90
21906;DHT22;11117;48.644;9.006;2022-12-29T12:01:54;11.90;99.90
21906;DHT22;11117;48.644;9.006;2022-12-29T12:04:23;11.80;99.90
21906;DHT22;11117;48.644;9.006;2022-12-29T12:07:04;11.80;99.90
21906;DHT22;11117;48.644;9.006;2022-12-29T12:09:49;11.90;99.90
21906;DHT22;11117;48.644;9.006;2022-12-29T12:12:27;11.70;99.90
21906;DHT22;11117;48.644;9.006;2022-12-29T12:14:56;11.70;99.90
21906;DHT22;11117;48.644;9.006;2022-12-29T12:17:49;11.60;99.90
21906;DHT22;11117;48.644;9.006;2022-12-29T12:20:26;11.50;99.90
21906;DHT22;11117;48.644;9.006;2022-12-29T12:23:06;11.60;99.90
21906;DHT22;11117;48.644;9.006;2022-12-29T12:25:43;11.40;99.90
21906;DHT22;11117;48.644;9.006;2022-12-29T12:28:33;11.30;99.90
21906;DHT22;11117;48.644;9.006;2022-12-29T12:31:01;11.40;99.90
21906;DHT22;11117;48.644;9.006;2022-12-29T12:33:32;11.50;99.90
21906;DHT22;11117;48.644;9.006;2022-12-29T12:48:12;11.80;99.90
21906;DHT22;11117;48.644;9.006;2022-12-29T13:01:55;11.80;99.90
21906;DHT22;11117;48.644;9.006;2022-12-29T13:04:41;11.80;99.90
21906;DHT22;11117;48.644;9.006;2022-12-29T13:15:56;12.20;99.90
21906;DHT22;11117;48.644;9.006;2022-12-29T13:21:22;11.90;99.90
21906;DHT22;11117;48.644;9.006;2022-12-29T13:24:22;11.80;99.90
21906;DHT22;11117;48.644;9.006;2022-12-29T13:26:50;11.80;99.90
21906;DHT22;11117;48.644;9.006;2022-12-29T13:29:54;11.70;99.90
21906;DHT22;11117;48.644;9.006;2022-12-29T13:32:53;11.80;99.90
21906;DHT22;11117;48.644;9.006;2022-12-29T13:38:16;11.70;99.90
21906;DHT22;11117;48.644;9.006;2022-12-29T13:40:45;11.80;99.90
21906;DHT22;11117;48.644;9.006;2022-12-29T13:43:13;11.80;99.90
21906;DHT22;11117;48.644;9.006;2022-12-29T13:45:45;11.90;99.90
21906;DHT22;11117;48.644;9.006;2022-12-29T13:48:17;11.90;99.90
21906;DHT22;11117;48.644;9.006;2022-12-29T13:50:48;11.90;99.90
21906;DHT22;11117;48.644;9.006;2022-12-29T13:57:31;11.80;99.90
21906;DHT22;11117;48.644;9.006;2022-12-29T14:08:00;11.70;99.90
21906;DHT22;11117;48.644;9.006;2022-12-29T14:10:36;11.70;99.90
21906;DHT22;11117;48.644;9.006;2022-12-29T14:13:14;11.60;99.90
21906;DHT22;11117;48.644;9.006;2022-12-29T14:15:42;11.60;99.90
21906;DHT22;11117;48.644;9.006;2022-12-29T14:18:21;11.50;99.90
21906;DHT22;11117;48.644;9.006;2022-12-29T14:20:58;11.50;99.90
21906;DHT22;11117;48.644;9.006;2022-12-29T14:28:41;11.20;99.90
21906;DHT22;11117;48.644;9.006;2022-12-29T14:36:54;11.20;99.90
21906;DHT22;11117;48.644;9.006;2022-12-29T14:39:39;11.10;99.90
21906;DHT22;11117;48.644;9.006;2022-12-29T14:42:12;10.90;99.90
21906;DHT22;11117;48.644;9.006;2022-12-29T14:44:52;10.80;99.90
21906;DHT22;11117;48.644;9.006;2022-12-29T14:49:55;10.60;99.90
21906;DHT22;11117;48.644;9.006;2022-12-29T14:52:25;10.60;99.90
21906;DHT22;11117;48.644;9.006;2022-12-29T14:55:28;10.60;99.90
21906;DHT22;11117;48.644;9.006;2022-12-29T14:57:41;10.50;99.90
21906;DHT22;11117;48.644;9.006;2022-12-29T15:00:16;10.40;99.90
21906;DHT22;11117;48.644;9.006;2022-12-29T15:02:48;10.40;99.90
21906;DHT22;11117;48.644;9.006;2022-12-29T15:08:00;10.30;99.90
21906;DHT22;11117;48.644;9.006;2022-12-29T15:10:34;10.40;99.90
21906;DHT22;11117;48.644;9.006;2022-12-29T15:13:04;10.40;99.90
21906;DHT22;11117;48.644;9.006;2022-12-29T15:15:37;10.50;99.90
21906;DHT22;11117;48.644;9.006;2022-12-29T15:18:22;10.30;99.90
21906;DHT22;11117;48.644;9.006;2022-12-29T15:20:51;10.30;99.90
21906;DHT22;11117;48.644;9.006;2022-12-29T15:23:19;10.30;99.90
21906;DHT22;11117;48.644;9.006;2022-12-29T15:25:49;10.30;99.90
21906;DHT22;11117;48.644;9.006;2022-12-29T15:28:16;10.30;99.90
21906;DHT22;11117;48.644;9.006;2022-12-29T15:31:05;10.30;99.90
21906;DHT22;11117;48.644;9.006;2022-12-29T15:33:31;10.30;99.90
21906;DHT22;11117;48.644;9.006;2022-12-29T15:36:03;10.30;99.90
21906;DHT22;11117;48.644;9.006;2022-12-29T15:38:35;10.30;99.90
21906;DHT22;11117;48.644;9.006;2022-12-29T15:41:06;10.30;99.90
21906;DHT22;11117;48.644;9.006;2022-12-29T15:43:35;10.30;99.90
21906;DHT22;11117;48.644;9.006;2022-12-29T15:46:03;10.30;99.90
21906;DHT22;11117;48.644;9.006;2022-12-29T15:48:30;10.20;99.90
21906;DHT22;11117;48.644;9.006;2022-12-29T15:50:56;10.20;99.90
21906;DHT22;11117;48.644;9.006;2022-12-29T15:53:26;10.20;99.90
21906;DHT22;11117;48.644;9.006;2022-12-29T15:55:52;10.20;99.90
21906;DHT22;11117;48.644;9.006;2022-12-29T15:58:29;10.10;99.90
21906;DHT22;11117;48.644;9.006;2022-12-29T16:00:57;10.10;99.90
21906;DHT22;11117;48.644;9.006;2022-12-29T16:03:30;10.10;99.90
21906;DHT22;11117;48.644;9.006;2022-12-29T16:06:08;10.00;99.90
21906;DHT22;11117;48.644;9.006;2022-12-29T16:08:37;10.00;99.90
21906;DHT22;11117;48.644;9.006;2022-12-29T16:11:51;10.00;99.90
21906;DHT22;11117;48.644;9.006;2022-12-29T16:13:52;9.90;99.90
21906;DHT22;11117;48.644;9.006;2022-12-29T16:16:26;9.90;99.90
21906;DHT22;11117;48.644;9.006;2022-12-29T16:18:56;9.80;99.90
21906;DHT22;11117;48.644;9.006;2022-12-29T16:21:32;9.90;99.90
21906;DHT22;11117;48.644;9.006;2022-12-29T16:24:05;9.90;99.90
21906;DHT22;11117;48.644;9.006;2022-12-29T16:26:32;9.90;99.90
21906;DHT22;11117;48.644;9.006;2022-12-29T16:29:00;9.80;99.90
21906;DHT22;11117;48.644;9.006;2022-12-29T16:31:33;9.60;99.90
21906;DHT22;11117;48.644;9.006;2022-12-29T16:34:19;9.50;99.90
21906;DHT22;11117;48.644;9.006;2022-12-29T16:39:50;9.30;99.90
21906;DHT22;11117;48.644;9.006;2022-12-29T16:48:28;9.20;99.90
21906;DHT22;11117;48.644;9.006;2022-12-29T16:53:38;9.10;99.90
21906;DHT22;11117;48.644;9.006;2022-12-29T16:58:39;9.00;99.90
21906;DHT22;11117;48.644;9.006;2022-12-29T17:01:06;9.00;99.90
21906;DHT22;11117;48.644;9.006;2022-12-29T17:03:39;9.00;99.90
21906;DHT22;11117;48.644;9.006;2022-12-29T17:06:14;9.00;99.90
21906;DHT22;11117;48.644;9.006;2022-12-29T17:08:41;9.00;99.90
21906;DHT22;11117;48.644;9.006;2022-12-29T17:11:48;8.90;99.90
21906;DHT22;11117;48.644;9.006;2022-12-29T17:16:48;9.00;99.90
21906;DHT22;11117;48.644;9.006;2022-12-29T17:19:20;9.00;99.90
21906;DHT22;11117;48.644;9.006;2022-12-29T17:21:46;9.00;99.90
21906;DHT22;11117;48.644;9.006;2022-12-29T17:24:16;9.00;99.90
21906;DHT22;11117;48.644;9.006;2022-12-29T17:26:44;9.00;99.90
21906;DHT22;11117;48.644;9.006;2022-12-29T17:29:18;9.00;99.90
21906;DHT22;11117;48.644;9.006;2022-12-29T17:31:44;9.10;99.90
21906;DHT22;11117;48.644;9.006;2022-12-29T17:34:13;9.10;99.90
21906;DHT22;11117;48.644;9.006;2022-12-29T17:36:39;9.10;99.90
21906;DHT22;11117;48.644;9.006;2022-12-29T17:39:05;9.10;99.90
21906;DHT22;11117;48.644;9.006;2022-12-29T17:41:33;9.10;99.90
21906;DHT22;11117;48.644;9.006;2022-12-29T17:44:00;9.10;99.90
21906;DHT22;11117;48.644;9.006;2022-12-29T17:46:26;9.20;99.90
21906;DHT22;11117;48.644;9.006;2022-12-29T17:48:51;9.30;99.90
21906;DHT22;11117;48.644;9.006;2022-12-29T17:51:19;9.40;99.90
21906;DHT22;11117;48.644;9.006;2022-12-29T17:53:45;9.40;99.90
21906;DHT22;11117;48.644;9.006;2022-12-29T17:56:11;9.40;99.90
21906;DHT22;11117;48.644;9.006;2022-12-29T17:58:36;9.50;99.90
21906;DHT22;11117;48.644;9.006;2022-12-29T18:01:03;9.50;99.90
21906;DHT22;11117;48.644;9.006;2022-12-29T18:03:37;9.50;99.90
21906;DHT22;11117;48.644;9.006;2022-12-29T18:06:04;9.60;99.90
21906;DHT22;11117;48.644;9.006;2022-12-29T18:08:30;9.50;99.90
21906;DHT22;11117;48.644;9.006;2022-12-29T18:10:56;9.60;99.90
21906;DHT22;11117;48.644;9.006;2022-12-29T18:13:25;9.60;99.90
21906;DHT22;11117;48.644;9.006;2022-12-29T18:15:52;9.60;99.90
21906;DHT22;11117;48.644;9.006;2022-12-29T18:18:19;9.70;99.90
21906;DHT22;11117;48.644;9.006;2022-12-29T18:20:46;9.80;99.90
21906;DHT22;11117;48.644;9.006;2022-12-29T18:23:30;9.80;99.90
21906;DHT22;11117;48.644;9.006;2022-12-29T18:25:59;9.60;99.90